sensor_id;sensor_type;location;lat;lon;timestamp;temperature;humidity
80931;DHT22;70388;42.698;23.324;2023-09-19T00:02:02;16.70;69.30
80931;DHT22;70388;42.698;23.324;2023-09-19T00:04:32;16.70;69.50
80931;DHT22;70388;42.698;23.324;2023-09-19T00:06:59;16.70;69.40
80931;DHT22;70388;42.698;23.324;2023-09-19T00:09:24;16.70;69.90
80931;DHT22;70388;42.698;23.324;2023-09-19T00:11:53;16.60;70.60
80931;DHT22;70388;42.698;23.324;2023-09-19T00:14:19;16.70;70.30
80931;DHT22;70388;42.698;23.324;2023-09-19T00:16:45;16.70;70.20
80931;DHT22;70388;42.698;23.324;2023-09-19T00:19:12;16.70;70.20
80931;DHT22;70388;42.698;23.324;2023-09-19T00:21:38;16.60;70.80
80931;DHT22;70388;42.698;23.324;2023-09-19T00:24:06;16.60;71.70
80931;DHT22;70388;42.698;23.324;2023-09-19T00:26:32;16.50;72.80
80931;DHT22;70388;42.698;23.324;2023-09-19T00:29:00;16.50;73.80
80931;DHT22;70388;42.698;23.324;2023-09-19T00:31:31;16.50;74.30
80931;DHT22;70388;42.698;23.324;2023-09-19T00:33:57;16.40;74.50
80931;DHT22;70388;42.698;23.324;2023-09-19T00:36:25;16.50;74.30
80931;DHT22;70388;42.698;23.324;2023-09-19T00:38:51;16.50;73.80
80931;DHT22;70388;42.698;23.324;2023-09-19T00:41:17;16.50;74.10
80931;DHT22;70388;42.698;23.324;2023-09-19T00:43:43;16.50;74.50
80931;DHT22;70388;42.698;23.324;2023-09-19T00:46:08;16.50;74.90
80931;DHT22;70388;42.698;23.324;2023-09-19T00:48:40;16.40;75.60
80931;DHT22;70388;42.698;23.324;2023-09-19T00:51:06;16.40;77.10
80931;DHT22;70388;42.698;23.324;2023-09-19T00:53:32;16.40;77.20
80931;DHT22;70388;42.698;23.324;2023-09-19T00:55:59;16.50;76.60
80931;DHT22;70388;42.698;23.324;2023-09-19T00:58:25;16.40;76.60
80931;DHT22;70388;42.698;23.324;2023-09-19T01:00:52;16.40;77.90
80931;DHT22;70388;42.698;23.324;2023-09-19T01:03:18;16.40;78.00
80931;DHT22;70388;42.698;23.324;2023-09-19T01:05:44;16.30;77.90
80931;DHT22;70388;42.698;23.324;2023-09-19T01:08:10;16.30;79.70
80931;DHT22;70388;42.698;23.324;2023-09-19T01:10:44;16.20;81.90
80931;DHT22;70388;42.698;23.324;2023-09-19T01:13:41;16.30;81.20
80931;DHT22;70388;42.698;23.324;2023-09-19T01:27:25;16.50;81.40
80931;DHT22;70388;42.698;23.324;2023-09-19T01:30:00;16.70;76.90
80931;DHT22;70388;42.698;23.324;2023-09-19T01:32:26;16.60;75.50
80931;DHT22;70388;42.698;23.324;2023-09-19T01:34:56;16.40;77.60
80931;DHT22;70388;42.698;23.324;2023-09-19T01:37:29;16.30;80.30
80931;DHT22;70388;42.698;23.324;2023-09-19T01:42:41;16.20;83.00
80931;DHT22;70388;42.698;23.324;2023-09-19T01:47:37;16.00;88.20
80931;DHT22;70388;42.698;23.324;2023-09-19T01:52:54;16.00;89.60
80931;DHT22;70388;42.698;23.324;2023-09-19T01:55:22;15.90;90.60
80931;DHT22;70388;42.698;23.324;2023-09-19T01:58:00;15.80;91.20
80931;DHT22;70388;42.698;23.324;2023-09-19T02:00:27;15.90;91.20
80931;DHT22;70388;42.698;23.324;2023-09-19T02:02:56;15.80;91.10
80931;DHT22;70388;42.698;23.324;2023-09-19T02:05:25;15.90;91.10
80931;DHT22;70388;42.698;23.324;2023-09-19T02:07:51;16.10;90.60
80931;DHT22;70388;42.698;23.324;2023-09-19T02:10:18;16.10;90.20
80931;DHT22;70388;42.698;23.324;2023-09-19T02:12:44;16.00;90.30
80931;DHT22;70388;42.698;23.324;2023-09-19T02:15:10;16.00;90.60
80931;DHT22;70388;42.698;23.324;2023-09-19T02:17:36;16.00;90.50
80931;DHT22;70388;42.698;23.324;2023-09-19T02:20:03;16.00;90.60
80931;DHT22;70388;42.698;23.324;2023-09-19T02:22:36;15.90;91.20
80931;DHT22;70388;42.698;23.324;2023-09-19T02:25:02;15.90;91.30
80931;DHT22;70388;42.698;23.324;2023-09-19T02:27:30;15.90;91.00
80931;DHT22;70388;42.698;23.324;2023-09-19T02:29:56;15.80;91.00
80931;DHT22;70388;42.698;23.324;2023-09-19T02:32:23;15.70;91.60
80931;DHT22;70388;42.698;23.324;2023-09-19T02:34:49;15.70;91.90
80931;DHT22;70388;42.698;23.324;2023-09-19T02:37:17;15.70;91.80
80931;DHT22;70388;42.698;23.324;2023-09-19T02:39:44;15.70;91.50
80931;DHT22;70388;42.698;23.324;2023-09-19T02:42:10;15.70;91.60
80931;DHT22;70388;42.698;23.324;2023-09-19T02:44:35;15.70;91.60
80931;DHT22;70388;42.698;23.324;2023-09-19T02:47:01;15.80;91.50
80931;DHT22;70388;42.698;23.324;2023-09-19T02:49:27;15.80;91.30
80931;DHT22;70388;42.698;23.324;2023-09-19T02:51:52;15.60;92.00
80931;DHT22;70388;42.698;23.324;2023-09-19T02:54:18;15.50;92.20
80931;DHT22;70388;42.698;23.324;2023-09-19T02:56:44;15.50;92.40
80931;DHT22;70388;42.698;23.324;2023-09-19T02:59:10;15.60;92.10
80931;DHT22;70388;42.698;23.324;2023-09-19T03:01:36;15.70;91.80
80931;DHT22;70388;42.698;23.324;2023-09-19T03:04:05;15.70;91.60
80931;DHT22;70388;42.698;23.324;2023-09-19T03:06:34;15.70;91.50
80931;DHT22;70388;42.698;23.324;2023-09-19T03:08:59;15.70;91.40
80931;DHT22;70388;42.698;23.324;2023-09-19T03:11:25;15.80;91.10
80931;DHT22;70388;42.698;23.324;2023-09-19T03:13:55;15.80;91.40
80931;DHT22;70388;42.698;23.324;2023-09-19T03:16:21;15.90;91.00
80931;DHT22;70388;42.698;23.324;2023-09-19T03:18:51;15.80;90.90
80931;DHT22;70388;42.698;23.324;2023-09-19T03:21:17;15.60;91.70
80931;DHT22;70388;42.698;23.324;2023-09-19T03:23:43;15.50;92.30
80931;DHT22;70388;42.698;23.324;2023-09-19T03:26:13;15.50;92.40
80931;DHT22;70388;42.698;23.324;2023-09-19T03:28:40;15.60;91.90
80931;DHT22;70388;42.698;23.324;2023-09-19T03:31:07;15.60;91.60
80931;DHT22;70388;42.698;23.324;2023-09-19T03:33:33;15.70;91.50
80931;DHT22;70388;42.698;23.324;2023-09-19T03:36:00;15.70;91.50
80931;DHT22;70388;42.698;23.324;2023-09-19T03:38:27;15.70;91.20
80931;DHT22;70388;42.698;23.324;2023-09-19T03:40:54;15.80;91.20
80931;DHT22;70388;42.698;23.324;2023-09-19T03:43:20;15.80;90.90
80931;DHT22;70388;42.698;23.324;2023-09-19T03:45:45;16.10;90.30
80931;DHT22;70388;42.698;23.324;2023-09-19T03:48:12;16.10;89.50
80931;DHT22;70388;42.698;23.324;2023-09-19T03:50:38;15.90;90.60
80931;DHT22;70388;42.698;23.324;2023-09-19T03:53:05;15.80;90.70
80931;DHT22;70388;42.698;23.324;2023-09-19T03:55:32;15.80;90.80
80931;DHT22;70388;42.698;23.324;2023-09-19T03:58:04;15.70;91.10
80931;DHT22;70388;42.698;23.324;2023-09-19T04:00:30;15.60;91.40
80931;DHT22;70388;42.698;23.324;2023-09-19T04:02:55;15.50;91.70
80931;DHT22;70388;42.698;23.324;2023-09-19T04:05:22;15.50;91.90
80931;DHT22;70388;42.698;23.324;2023-09-19T04:07:48;15.40;92.30
80931;DHT22;70388;42.698;23.324;2023-09-19T04:10:15;15.40;92.40
80931;DHT22;70388;42.698;23.324;2023-09-19T04:12:53;15.40;92.30
80931;DHT22;70388;42.698;23.324;2023-09-19T04:15:19;15.40;92.30
80931;DHT22;70388;42.698;23.324;2023-09-19T04:17:51;15.50;92.20
80931;DHT22;70388;42.698;23.324;2023-09-19T04:20:18;15.60;91.70
80931;DHT22;70388;42.698;23.324;2023-09-19T04:22:50;15.80;91.00
80931;DHT22;70388;42.698;23.324;2023-09-19T04:25:16;15.90;90.50
80931;DHT22;70388;42.698;23.324;2023-09-19T04:27:44;15.80;90.60
80931;DHT22;70388;42.698;23.324;2023-09-19T04:30:10;15.60;91.20
80931;DHT22;70388;42.698;23.324;2023-09-19T04:32:37;15.60;91.60
80931;DHT22;70388;42.698;23.324;2023-09-19T04:35:09;15.60;91.50
80931;DHT22;70388;42.698;23.324;2023-09-19T04:37:37;15.50;91.80
80931;DHT22;70388;42.698;23.324;2023-09-19T04:40:05;15.60;91.80
80931;DHT22;70388;42.698;23.324;2023-09-19T04:42:31;15.60;91.50
80931;DHT22;70388;42.698;23.324;2023-09-19T04:44:57;15.60;91.60
80931;DHT22;70388;42.698;23.324;2023-09-19T04:47:25;15.60;91.50
80931;DHT22;70388;42.698;23.324;2023-09-19T04:49:51;15.70;91.10
80931;DHT22;70388;42.698;23.324;2023-09-19T04:52:17;15.80;90.70
80931;DHT22;70388;42.698;23.324;2023-09-19T04:54:43;16.00;90.10
80931;DHT22;70388;42.698;23.324;2023-09-19T04:57:08;16.00;90.10
80931;DHT22;70388;42.698;23.324;2023-09-19T04:59:34;16.10;89.90
80931;DHT22;70388;42.698;23.324;2023-09-19T05:01:59;16.00;90.10
80931;DHT22;70388;42.698;23.324;2023-09-19T05:04:25;15.90;90.10
80931;DHT22;70388;42.698;23.324;2023-09-19T05:06:51;15.90;90.20
80931;DHT22;70388;42.698;23.324;2023-09-19T05:09:17;16.00;90.30
80931;DHT22;70388;42.698;23.324;2023-09-19T05:11:45;16.20;89.70
80931;DHT22;70388;42.698;23.324;2023-09-19T05:14:11;16.30;88.70
80931;DHT22;70388;42.698;23.324;2023-09-19T05:16:37;16.70;86.40
80931;DHT22;70388;42.698;23.324;2023-09-19T05:19:03;16.90;84.20
80931;DHT22;70388;42.698;23.324;2023-09-19T05:21:30;16.90;84.10
80931;DHT22;70388;42.698;23.324;2023-09-19T05:23:56;16.80;83.60
80931;DHT22;70388;42.698;23.324;2023-09-19T05:26:22;16.80;85.40
80931;DHT22;70388;42.698;23.324;2023-09-19T05:28:48;17.10;83.40
80931;DHT22;70388;42.698;23.324;2023-09-19T05:31:13;17.50;80.80
80931;DHT22;70388;42.698;23.324;2023-09-19T05:33:41;17.90;78.00
80931;DHT22;70388;42.698;23.324;2023-09-19T05:36:06;17.70;77.70
80931;DHT22;70388;42.698;23.324;2023-09-19T05:38:33;17.40;79.20
80931;DHT22;70388;42.698;23.324;2023-09-19T05:40:58;17.20;80.60
80931;DHT22;70388;42.698;23.324;2023-09-19T05:43:24;17.20;80.90
80931;DHT22;70388;42.698;23.324;2023-09-19T05:45:50;17.60;79.20
80931;DHT22;70388;42.698;23.324;2023-09-19T05:48:17;17.90;70.30
80931;DHT22;70388;42.698;23.324;2023-09-19T05:50:43;18.10;62.60
80931;DHT22;70388;42.698;23.324;2023-09-19T05:53:12;18.00;62.20
80931;DHT22;70388;42.698;23.324;2023-09-19T05:55:40;18.20;61.40
80931;DHT22;70388;42.698;23.324;2023-09-19T05:58:06;17.90;62.50
80931;DHT22;70388;42.698;23.324;2023-09-19T06:00:31;18.20;61.90
80931;DHT22;70388;42.698;23.324;2023-09-19T06:02:59;18.60;60.60
80931;DHT22;70388;42.698;23.324;2023-09-19T06:05:25;19.00;59.10
80931;DHT22;70388;42.698;23.324;2023-09-19T06:07:55;19.30;57.60
80931;DHT22;70388;42.698;23.324;2023-09-19T06:10:26;19.50;57.00
80931;DHT22;70388;42.698;23.324;2023-09-19T06:12:53;19.50;56.40
80931;DHT22;70388;42.698;23.324;2023-09-19T06:15:20;19.50;57.00
80931;DHT22;70388;42.698;23.324;2023-09-19T06:17:52;19.70;56.30
80931;DHT22;70388;42.698;23.324;2023-09-19T06:20:21;19.30;57.10
80931;DHT22;70388;42.698;23.324;2023-09-19T06:22:48;18.80;59.30
80931;DHT22;70388;42.698;23.324;2023-09-19T06:25:15;18.90;59.50
80931;DHT22;70388;42.698;23.324;2023-09-19T06:27:51;19.30;58.20
80931;DHT22;70388;42.698;23.324;2023-09-19T06:30:21;19.70;57.70
80931;DHT22;70388;42.698;23.324;2023-09-19T06:32:48;20.00;55.50
80931;DHT22;70388;42.698;23.324;2023-09-19T06:35:15;20.30;54.70
80931;DHT22;70388;42.698;23.324;2023-09-19T06:37:42;20.60;53.70
80931;DHT22;70388;42.698;23.324;2023-09-19T06:40:15;20.20;54.60
80931;DHT22;70388;42.698;23.324;2023-09-19T06:42:46;20.20;55.00
80931;DHT22;70388;42.698;23.324;2023-09-19T06:45:14;20.60;53.70
80931;DHT22;70388;42.698;23.324;2023-09-19T06:47:48;20.90;52.50
80931;DHT22;70388;42.698;23.324;2023-09-19T06:50:19;21.10;52.20
80931;DHT22;70388;42.698;23.324;2023-09-19T06:52:47;21.40;51.30
80931;DHT22;70388;42.698;23.324;2023-09-19T06:55:15;21.60;50.60
80931;DHT22;70388;42.698;23.324;2023-09-19T06:57:42;21.80;49.60
80931;DHT22;70388;42.698;23.324;2023-09-19T07:00:10;21.80;49.30
80931;DHT22;70388;42.698;23.324;2023-09-19T07:02:44;22.00;49.10
80931;DHT22;70388;42.698;23.324;2023-09-19T07:05:10;21.70;49.60
80931;DHT22;70388;42.698;23.324;2023-09-19T07:07:35;21.90;49.30
80931;DHT22;70388;42.698;23.324;2023-09-19T07:10:04;22.00;48.70
80931;DHT22;70388;42.698;23.324;2023-09-19T07:12:31;22.10;48.50
80931;DHT22;70388;42.698;23.324;2023-09-19T07:14:58;22.30;47.80
80931;DHT22;70388;42.698;23.324;2023-09-19T07:17:24;22.40;47.50
80931;DHT22;70388;42.698;23.324;2023-09-19T07:19:50;22.50;47.20
80931;DHT22;70388;42.698;23.324;2023-09-19T07:22:16;22.60;46.80
80931;DHT22;70388;42.698;23.324;2023-09-19T07:24:41;22.90;46.20
80931;DHT22;70388;42.698;23.324;2023-09-19T07:27:08;23.00;45.20
80931;DHT22;70388;42.698;23.324;2023-09-19T07:29:34;22.90;45.60
80931;DHT22;70388;42.698;23.324;2023-09-19T07:32:00;22.80;45.80
80931;DHT22;70388;42.698;23.324;2023-09-19T07:34:28;21.80;48.50
80931;DHT22;70388;42.698;23.324;2023-09-19T07:36:54;21.60;49.70
80931;DHT22;70388;42.698;23.324;2023-09-19T07:39:20;21.90;48.70
80931;DHT22;70388;42.698;23.324;2023-09-19T07:41:46;22.00;48.10
80931;DHT22;70388;42.698;23.324;2023-09-19T07:44:11;22.30;47.30
80931;DHT22;70388;42.698;23.324;2023-09-19T07:46:37;22.50;46.70
80931;DHT22;70388;42.698;23.324;2023-09-19T07:49:03;22.70;46.20
80931;DHT22;70388;42.698;23.324;2023-09-19T07:51:30;23.00;45.60
80931;DHT22;70388;42.698;23.324;2023-09-19T07:53:56;23.20;44.80
80931;DHT22;70388;42.698;23.324;2023-09-19T07:56:21;23.40;44.40
80931;DHT22;70388;42.698;23.324;2023-09-19T07:58:48;23.80;43.50
80931;DHT22;70388;42.698;23.324;2023-09-19T08:01:13;24.30;42.10
80931;DHT22;70388;42.698;23.324;2023-09-19T08:03:41;24.60;41.30
80931;DHT22;70388;42.698;23.324;2023-09-19T08:06:09;24.30;41.30
80931;DHT22;70388;42.698;23.324;2023-09-19T08:08:35;24.50;41.20
80931;DHT22;70388;42.698;23.324;2023-09-19T08:11:06;25.10;40.10
80931;DHT22;70388;42.698;23.324;2023-09-19T08:13:39;25.20;39.50
80931;DHT22;70388;42.698;23.324;2023-09-19T08:16:11;25.30;39.40
80931;DHT22;70388;42.698;23.324;2023-09-19T08:18:37;25.60;39.00
80931;DHT22;70388;42.698;23.324;2023-09-19T08:21:07;25.70;38.60
80931;DHT22;70388;42.698;23.324;2023-09-19T08:23:38;25.90;38.10
80931;DHT22;70388;42.698;23.324;2023-09-19T08:26:05;26.00;37.70
80931;DHT22;70388;42.698;23.324;2023-09-19T08:28:34;26.40;37.20
80931;DHT22;70388;42.698;23.324;2023-09-19T08:31:04;25.90;37.90
80931;DHT22;70388;42.698;23.324;2023-09-19T08:33:34;26.40;37.00
80931;DHT22;70388;42.698;23.324;2023-09-19T08:36:01;26.90;36.30
80931;DHT22;70388;42.698;23.324;2023-09-19T08:38:31;27.10;35.00
80931;DHT22;70388;42.698;23.324;2023-09-19T08:40:59;27.00;35.20
80931;DHT22;70388;42.698;23.324;2023-09-19T08:43:26;27.50;34.60
80931;DHT22;70388;42.698;23.324;2023-09-19T08:46:11;27.50;33.80
80931;DHT22;70388;42.698;23.324;2023-09-19T08:48:46;27.20;34.00
80931;DHT22;70388;42.698;23.324;2023-09-19T08:51:27;26.10;36.60
80931;DHT22;70388;42.698;23.324;2023-09-19T08:54:06;26.10;36.60
80931;DHT22;70388;42.698;23.324;2023-09-19T08:56:33;26.50;36.10
80931;DHT22;70388;42.698;23.324;2023-09-19T08:59:05;26.70;36.80
80931;DHT22;70388;42.698;23.324;2023-09-19T09:01:33;25.90;37.10
80931;DHT22;70388;42.698;23.324;2023-09-19T09:04:01;24.40;41.20
80931;DHT22;70388;42.698;23.324;2023-09-19T09:06:29;24.10;42.10
80931;DHT22;70388;42.698;23.324;2023-09-19T09:08:55;24.40;41.30
80931;DHT22;70388;42.698;23.324;2023-09-19T09:11:22;24.70;40.60
80931;DHT22;70388;42.698;23.324;2023-09-19T09:13:50;25.00;39.90
80931;DHT22;70388;42.698;23.324;2023-09-19T09:16:16;25.10;39.60
80931;DHT22;70388;42.698;23.324;2023-09-19T09:18:47;24.90;40.40
80931;DHT22;70388;42.698;23.324;2023-09-19T09:21:18;24.50;41.30
80931;DHT22;70388;42.698;23.324;2023-09-19T09:23:44;24.40;41.30
80931;DHT22;70388;42.698;23.324;2023-09-19T09:26:10;24.80;40.50
80931;DHT22;70388;42.698;23.324;2023-09-19T09:28:36;24.80;40.50
80931;DHT22;70388;42.698;23.324;2023-09-19T09:31:22;25.50;39.00
80931;DHT22;70388;42.698;23.324;2023-09-19T09:33:55;26.10;37.70
80931;DHT22;70388;42.698;23.324;2023-09-19T09:39:00;26.80;35.90
80931;DHT22;70388;42.698;23.324;2023-09-19T09:41:41;26.60;35.90
80931;DHT22;70388;42.698;23.324;2023-09-19T09:44:18;26.50;36.20
80931;DHT22;70388;42.698;23.324;2023-09-19T09:46:45;25.50;39.20
80931;DHT22;70388;42.698;23.324;2023-09-19T09:49:24;25.10;39.40
80931;DHT22;70388;42.698;23.324;2023-09-19T09:52:05;25.60;38.40
80931;DHT22;70388;42.698;23.324;2023-09-19T09:54:59;25.30;38.30
80931;DHT22;70388;42.698;23.324;2023-09-19T09:57:26;25.30;39.00
80931;DHT22;70388;42.698;23.324;2023-09-19T09:59:53;25.50;38.30
80931;DHT22;70388;42.698;23.324;2023-09-19T10:02:30;24.60;40.70
80931;DHT22;70388;42.698;23.324;2023-09-19T10:05:16;25.00;39.70
80931;DHT22;70388;42.698;23.324;2023-09-19T10:07:54;25.70;38.50
80931;DHT22;70388;42.698;23.324;2023-09-19T10:10:35;26.10;37.30
80931;DHT22;70388;42.698;23.324;2023-09-19T10:13:08;26.50;36.80
80931;DHT22;70388;42.698;23.324;2023-09-19T10:15:38;26.50;36.30
80931;DHT22;70388;42.698;23.324;2023-09-19T10:18:07;26.50;36.50
80931;DHT22;70388;42.698;23.324;2023-09-19T10:20:37;26.60;36.40
80931;DHT22;70388;42.698;23.324;2023-09-19T10:23:11;26.60;36.30
80931;DHT22;70388;42.698;23.324;2023-09-19T10:25:42;26.50;36.20
80931;DHT22;70388;42.698;23.324;2023-09-19T10:28:10;25.20;38.90
80931;DHT22;70388;42.698;23.324;2023-09-19T10:30:46;24.50;40.60
80931;DHT22;70388;42.698;23.324;2023-09-19T10:33:34;24.70;40.50
80931;DHT22;70388;42.698;23.324;2023-09-19T10:36:03;24.10;41.80
80931;DHT22;70388;42.698;23.324;2023-09-19T10:38:32;24.50;41.10
80931;DHT22;70388;42.698;23.324;2023-09-19T10:41:00;25.10;39.60
80931;DHT22;70388;42.698;23.324;2023-09-19T10:43:32;25.60;38.60
80931;DHT22;70388;42.698;23.324;2023-09-19T10:46:03;25.70;38.20
80931;DHT22;70388;42.698;23.324;2023-09-19T10:48:32;26.00;38.00
80931;DHT22;70388;42.698;23.324;2023-09-19T10:51:14;26.00;37.60
80931;DHT22;70388;42.698;23.324;2023-09-19T10:54:01;26.20;37.30
80931;DHT22;70388;42.698;23.324;2023-09-19T10:56:34;26.10;37.20
80931;DHT22;70388;42.698;23.324;2023-09-19T10:59:10;26.20;36.90
80931;DHT22;70388;42.698;23.324;2023-09-19T11:01:45;26.30;36.90
80931;DHT22;70388;42.698;23.324;2023-09-19T11:04:30;26.40;36.60
80931;DHT22;70388;42.698;23.324;2023-09-19T11:07:05;26.50;36.60
80931;DHT22;70388;42.698;23.324;2023-09-19T11:09:52;26.60;36.50
80931;DHT22;70388;42.698;23.324;2023-09-19T11:14:56;26.60;36.40
80931;DHT22;70388;42.698;23.324;2023-09-19T11:17:38;25.80;37.80
80931;DHT22;70388;42.698;23.324;2023-09-19T11:30:46;25.60;39.30
80931;DHT22;70388;42.698;23.324;2023-09-19T11:33:20;25.30;39.40
80931;DHT22;70388;42.698;23.324;2023-09-19T11:46:33;26.80;36.30
80931;DHT22;70388;42.698;23.324;2023-09-19T11:49:09;26.50;37.20
80931;DHT22;70388;42.698;23.324;2023-09-19T11:51:55;26.00;38.20
80931;DHT22;70388;42.698;23.324;2023-09-19T11:54:21;26.10;38.10
80931;DHT22;70388;42.698;23.324;2023-09-19T11:56:54;25.60;38.70
80931;DHT22;70388;42.698;23.324;2023-09-19T11:59:21;25.50;39.30
80931;DHT22;70388;42.698;23.324;2023-09-19T12:01:55;26.00;38.40
80931;DHT22;70388;42.698;23.324;2023-09-19T12:04:35;26.30;37.80
80931;DHT22;70388;42.698;23.324;2023-09-19T12:07:10;26.40;37.40
80931;DHT22;70388;42.698;23.324;2023-09-19T12:09:44;26.50;36.90
80931;DHT22;70388;42.698;23.324;2023-09-19T12:12:23;26.50;37.10
80931;DHT22;70388;42.698;23.324;2023-09-19T12:14:50;26.20;37.40
80931;DHT22;70388;42.698;23.324;2023-09-19T12:17:19;25.70;39.00
80931;DHT22;70388;42.698;23.324;2023-09-19T12:19:56;25.20;40.20
80931;DHT22;70388;42.698;23.324;2023-09-19T12:22:22;24.80;40.80
80931;DHT22;70388;42.698;23.324;2023-09-19T12:24:48;24.90;41.00
80931;DHT22;70388;42.698;23.324;2023-09-19T12:27:14;25.00;40.90
80931;DHT22;70388;42.698;23.324;2023-09-19T12:29:48;24.90;41.50
80931;DHT22;70388;42.698;23.324;2023-09-19T12:32:41;25.00;40.70
80931;DHT22;70388;42.698;23.324;2023-09-19T12:35:08;25.30;40.20
80931;DHT22;70388;42.698;23.324;2023-09-19T12:37:37;25.40;40.10
80931;DHT22;70388;42.698;23.324;2023-09-19T12:40:07;25.60;39.70
80931;DHT22;70388;42.698;23.324;2023-09-19T12:42:48;25.10;40.30
80931;DHT22;70388;42.698;23.324;2023-09-19T12:45:15;24.70;41.30
80931;DHT22;70388;42.698;23.324;2023-09-19T12:48:17;24.80;41.60
80931;DHT22;70388;42.698;23.324;2023-09-19T12:53:39;24.90;41.00
80931;DHT22;70388;42.698;23.324;2023-09-19T12:56:13;25.10;40.70
80931;DHT22;70388;42.698;23.324;2023-09-19T12:58:59;25.30;40.40
80931;DHT22;70388;42.698;23.324;2023-09-19T13:01:29;25.20;40.50
80931;DHT22;70388;42.698;23.324;2023-09-19T13:06:37;25.20;40.60
80931;DHT22;70388;42.698;23.324;2023-09-19T13:09:10;25.30;40.10
80931;DHT22;70388;42.698;23.324;2023-09-19T13:11:37;25.40;39.80
80931;DHT22;70388;42.698;23.324;2023-09-19T13:14:24;25.10;40.20
80931;DHT22;70388;42.698;23.324;2023-09-19T13:17:04;24.90;41.00
80931;DHT22;70388;42.698;23.324;2023-09-19T13:19:50;25.00;40.90
80931;DHT22;70388;42.698;23.324;2023-09-19T13:25:09;25.30;40.50
80931;DHT22;70388;42.698;23.324;2023-09-19T13:27:44;25.40;40.30
80931;DHT22;70388;42.698;23.324;2023-09-19T13:30:14;25.50;39.90
80931;DHT22;70388;42.698;23.324;2023-09-19T13:32:40;25.60;40.00
80931;DHT22;70388;42.698;23.324;2023-09-19T13:35:07;25.60;39.90
80931;DHT22;70388;42.698;23.324;2023-09-19T13:37:38;25.60;39.90
80931;DHT22;70388;42.698;23.324;2023-09-19T13:40:08;25.80;39.70
80931;DHT22;70388;42.698;23.324;2023-09-19T13:42:34;25.70;39.50
80931;DHT22;70388;42.698;23.324;2023-09-19T13:45:04;25.60;39.60
80931;DHT22;70388;42.698;23.324;2023-09-19T13:47:31;25.40;40.40
80931;DHT22;70388;42.698;23.324;2023-09-19T13:49:58;25.40;40.50
80931;DHT22;70388;42.698;23.324;2023-09-19T13:52:24;25.30;40.70
80931;DHT22;70388;42.698;23.324;2023-09-19T13:54:54;25.30;40.60
80931;DHT22;70388;42.698;23.324;2023-09-19T13:57:25;25.30;40.70
80931;DHT22;70388;42.698;23.324;2023-09-19T13:59:52;25.20;41.20
80931;DHT22;70388;42.698;23.324;2023-09-19T14:02:22;25.30;40.80
80931;DHT22;70388;42.698;23.324;2023-09-19T14:04:49;25.50;40.40
80931;DHT22;70388;42.698;23.324;2023-09-19T14:07:15;25.30;40.90
80931;DHT22;70388;42.698;23.324;2023-09-19T14:09:43;25.30;41.00
80931;DHT22;70388;42.698;23.324;2023-09-19T14:12:08;25.30;40.70
80931;DHT22;70388;42.698;23.324;2023-09-19T14:14:34;25.20;41.00
80931;DHT22;70388;42.698;23.324;2023-09-19T14:17:00;25.30;40.80
80931;DHT22;70388;42.698;23.324;2023-09-19T14:19:29;25.40;40.50
80931;DHT22;70388;42.698;23.324;2023-09-19T14:21:54;25.60;40.00
80931;DHT22;70388;42.698;23.324;2023-09-19T14:24:23;25.80;39.60
80931;DHT22;70388;42.698;23.324;2023-09-19T14:26:49;25.80;39.60
80931;DHT22;70388;42.698;23.324;2023-09-19T14:29:16;25.80;39.60
80931;DHT22;70388;42.698;23.324;2023-09-19T14:31:42;25.70;40.00
80931;DHT22;70388;42.698;23.324;2023-09-19T14:34:09;25.60;40.50
80931;DHT22;70388;42.698;23.324;2023-09-19T14:36:38;25.60;40.80
80931;DHT22;70388;42.698;23.324;2023-09-19T14:39:07;25.50;40.50
80931;DHT22;70388;42.698;23.324;2023-09-19T14:41:34;25.40;40.50
80931;DHT22;70388;42.698;23.324;2023-09-19T14:44:01;25.20;41.10
80931;DHT22;70388;42.698;23.324;2023-09-19T14:46:27;25.30;41.00
80931;DHT22;70388;42.698;23.324;2023-09-19T14:48:53;25.40;41.00
80931;DHT22;70388;42.698;23.324;2023-09-19T14:51:19;25.50;40.60
80931;DHT22;70388;42.698;23.324;2023-09-19T14:53:45;25.60;40.50
80931;DHT22;70388;42.698;23.324;2023-09-19T14:56:14;25.50;40.40
80931;DHT22;70388;42.698;23.324;2023-09-19T14:58:44;25.30;41.10
80931;DHT22;70388;42.698;23.324;2023-09-19T15:01:11;25.20;41.30
80931;DHT22;70388;42.698;23.324;2023-09-19T15:03:38;25.10;41.70
80931;DHT22;70388;42.698;23.324;2023-09-19T15:06:09;25.10;41.60
80931;DHT22;70388;42.698;23.324;2023-09-19T15:08:36;25.10;41.50
80931;DHT22;70388;42.698;23.324;2023-09-19T15:11:09;25.20;41.40
80931;DHT22;70388;42.698;23.324;2023-09-19T15:13:36;25.30;41.40
80931;DHT22;70388;42.698;23.324;2023-09-19T15:16:03;25.30;41.10
80931;DHT22;70388;42.698;23.324;2023-09-19T15:18:30;25.20;41.40
80931;DHT22;70388;42.698;23.324;2023-09-19T15:21:06;25.10;41.40
80931;DHT22;70388;42.698;23.324;2023-09-19T15:23:33;24.90;42.10
80931;DHT22;70388;42.698;23.324;2023-09-19T15:26:03;24.90;42.40
80931;DHT22;70388;42.698;23.324;2023-09-19T15:28:29;24.80;42.60
80931;DHT22;70388;42.698;23.324;2023-09-19T15:33:29;24.80;42.90
80931;DHT22;70388;42.698;23.324;2023-09-19T15:38:29;24.80;42.80
80931;DHT22;70388;42.698;23.324;2023-09-19T15:40:55;24.80;42.60
80931;DHT22;70388;42.698;23.324;2023-09-19T15:43:21;24.80;42.60
80931;DHT22;70388;42.698;23.324;2023-09-19T15:45:47;24.70;42.60
80931;DHT22;70388;42.698;23.324;2023-09-19T15:48:16;24.80;42.80
80931;DHT22;70388;42.698;23.324;2023-09-19T15:50:42;24.80;42.50
80931;DHT22;70388;42.698;23.324;2023-09-19T15:53:10;24.90;42.50
80931;DHT22;70388;42.698;23.324;2023-09-19T15:55:41;24.90;42.30
80931;DHT22;70388;42.698;23.324;2023-09-19T15:58:07;24.90;42.30
80931;DHT22;70388;42.698;23.324;2023-09-19T16:00:33;24.90;42.50
80931;DHT22;70388;42.698;23.324;2023-09-19T16:03:02;24.90;42.30
80931;DHT22;70388;42.698;23.324;2023-09-19T16:05:34;24.90;42.20
80931;DHT22;70388;42.698;23.324;2023-09-19T16:08:05;24.90;42.00
80931;DHT22;70388;42.698;23.324;2023-09-19T16:10:34;24.80;42.40
80931;DHT22;70388;42.698;23.324;2023-09-19T16:13:01;24.70;42.80
80931;DHT22;70388;42.698;23.324;2023-09-19T16:15:26;24.60;43.00
80931;DHT22;70388;42.698;23.324;2023-09-19T16:17:52;24.50;43.10
80931;DHT22;70388;42.698;23.324;2023-09-19T16:20:18;24.40;43.40
80931;DHT22;70388;42.698;23.324;2023-09-19T16:22:45;24.30;43.70
80931;DHT22;70388;42.698;23.324;2023-09-19T16:25:12;24.20;44.00
80931;DHT22;70388;42.698;23.324;2023-09-19T16:27:37;24.20;44.30